createdAt,value
2022-09-01T00:02:30.093Z,68.85
2022-09-01T00:05:37.318Z,68.69
2022-09-01T00:08:44.367Z,68.98
2022-09-01T00:11:56.023Z,68.99
2022-09-01T00:15:03.589Z,69.08
2022-09-01T00:18:09.770Z,69.03
2022-09-01T00:21:17.302Z,68.78
2022-09-01T00:24:23.496Z,69.20
2022-09-01T00:27:33.322Z,69.10
2022-09-01T00:30:39.289Z,69.03
2022-09-01T00:33:46.570Z,69.37
2022-09-01T00:36:52.799Z,69.12
2022-09-01T00:39:59.854Z,69.60
2022-09-01T00:43:18.284Z,69.63
2022-09-01T00:46:29.070Z,69.38
2022-09-01T00:49:39.758Z,69.82
2022-09-01T00:52:51.181Z,69.68
2022-09-01T00:55:57.456Z,69.39
2022-09-01T00:59:09.735Z,69.22
2022-09-01T01:02:15.997Z,69.20
2022-09-01T01:05:23.568Z,69.38
2022-09-01T01:08:35.425Z,69.57
2022-09-01T01:11:45.435Z,69.45
2022-09-01T01:14:55.267Z,69.92
2022-09-01T01:18:03.537Z,70.06
2022-09-01T01:21:34.252Z,70.55
2022-09-01T01:24:46.504Z,70.74
2022-09-01T01:27:53.823Z,70.92
2022-09-01T01:31:05.236Z,70.76
2022-09-01T01:34:12.400Z,70.80
2022-09-01T01:37:24.225Z,71.02
2022-09-01T01:40:33.833Z,71.19
2022-09-01T01:43:41.004Z,71.42
2022-09-01T01:46:50.422Z,71.16
2022-09-01T01:49:57.879Z,71.32
2022-09-01T01:53:11.315Z,71.34
2022-09-01T01:56:23.068Z,71.21
2022-09-01T01:59:30.167Z,71.37
2022-09-01T02:02:38.608Z,71.52
2022-09-01T02:05:44.546Z,71.20
2022-09-01T02:08:52.452Z,71.14
2022-09-01T02:12:01.410Z,71.19
2022-09-01T02:15:13.523Z,71.29
2022-09-01T02:18:21.969Z,71.14
2022-09-01T02:21:30.867Z,71.37
2022-09-01T02:24:36.948Z,71.25
2022-09-01T02:27:49.673Z,71.39
2022-09-01T02:30:58.014Z,71.13
2022-09-01T02:34:10.998Z,71.50
2022-09-01T02:37:17.476Z,71.19
2022-09-01T02:40:24.514Z,71.60
2022-09-01T02:43:34.218Z,71.58
2022-09-01T02:46:42.209Z,71.83
2022-09-01T02:49:48.363Z,71.82
2022-09-01T02:52:55.805Z,71.99
2022-09-01T02:56:03.526Z,71.73
2022-09-01T02:59:15.537Z,71.62
2022-09-01T03:02:21.821Z,71.86
2022-09-01T03:05:31.127Z,71.71
2022-09-01T03:08:39.886Z,71.61
2022-09-01T03:11:49.243Z,72.09
2022-09-01T03:14:58.134Z,71.95
2022-09-01T03:18:06.620Z,72.28
2022-09-01T03:21:17.325Z,72.33
2022-09-01T03:24:24.859Z,72.30
2022-09-01T03:27:31.312Z,72.38
2022-09-01T03:30:41.887Z,72.70
2022-09-01T03:33:48.758Z,72.71
2022-09-01T03:37:07.611Z,72.47
2022-09-01T03:40:16.207Z,72.71
2022-09-01T03:43:34.519Z,72.82
2022-09-01T03:46:47.015Z,72.86
2022-09-01T03:49:55.365Z,72.67
2022-09-01T03:53:03.797Z,72.88
2022-09-01T03:56:11.737Z,72.88
2022-09-01T03:59:19.989Z,73.04
2022-09-01T04:02:31.045Z,72.60
2022-09-01T04:05:39.521Z,73.18
2022-09-01T04:08:47.386Z,73.30
2022-09-01T04:11:53.593Z,73.40
2022-09-01T04:15:03.539Z,73.06
2022-09-01T04:18:11.069Z,73.71
2022-09-01T04:21:17.967Z,73.98
2022-09-01T04:24:28.333Z,73.93
2022-09-01T04:27:41.082Z,74.03
2022-09-01T04:30:48.857Z,74.04
2022-09-01T04:34:03.572Z,73.58
2022-09-01T04:37:18.378Z,73.77
2022-09-01T04:40:25.589Z,73.90
2022-09-01T04:43:33.837Z,74.04
2022-09-01T04:46:46.700Z,73.83
2022-09-01T04:50:00.519Z,73.58
2022-09-01T04:53:12.342Z,73.49
2022-09-01T04:56:24.487Z,73.25
2022-09-01T04:59:47.292Z,73.27
2022-09-01T05:02:55.236Z,72.89
2022-09-01T05:06:09.008Z,73.24
2022-09-01T05:09:17.647Z,73.28
2022-09-01T05:12:35.776Z,73.14
2022-09-01T05:15:46.913Z,73.16
2022-09-01T05:18:57.282Z,73.38
2022-09-01T05:22:11.136Z,73.41
2022-09-01T05:25:23.469Z,73.19
2022-09-01T05:28:30.000Z,73.19
2022-09-01T05:31:38.039Z,73.02
2022-09-01T05:34:46.636Z,72.62
2022-09-01T05:38:01.142Z,72.88
2022-09-01T05:41:10.124Z,72.46
2022-09-01T05:44:18.734Z,72.55
2022-09-01T05:47:26.842Z,71.96
2022-09-01T05:50:33.756Z,71.84
2022-09-01T05:53:44.168Z,71.31
2022-09-01T05:56:53.818Z,71.32
2022-09-01T06:00:03.850Z,70.99
2022-09-01T06:03:20.720Z,70.90
2022-09-01T06:06:43.800Z,70.89
2022-09-01T06:10:00.782Z,70.97
2022-09-01T06:13:09.124Z,70.91
2022-09-01T06:16:20.087Z,70.66
2022-09-01T06:19:26.258Z,70.64
2022-09-01T06:22:33.633Z,70.03
2022-09-01T06:25:46.313Z,69.36
2022-09-01T06:28:57.173Z,69.35
2022-09-01T06:32:03.639Z,69.39
2022-09-01T06:35:12.034Z,69.21
2022-09-01T06:38:19.391Z,68.90
2022-09-01T06:41:31.788Z,68.28
2022-09-01T06:44:41.219Z,67.76
2022-09-01T06:47:51.294Z,67.73
2022-09-01T06:51:19.045Z,67.60
2022-09-01T06:54:31.039Z,66.91
2022-09-01T07:01:17.595Z,66.56
2022-09-01T07:04:25.262Z,66.14
2022-09-01T07:18:32.093Z,63.90
2022-09-01T07:21:41.951Z,64.12
2022-09-01T07:25:13.382Z,63.50
2022-09-01T07:28:40.950Z,62.99
2022-09-01T07:32:41.227Z,62.74
2022-09-01T07:35:20.290Z,62.54
2022-09-01T07:45:48.061Z,61.99
2022-09-01T07:52:34.051Z,62.02
2022-09-01T07:55:44.333Z,62.27
2022-09-01T07:58:53.013Z,62.32
2022-09-01T08:02:05.967Z,62.36
2022-09-01T08:05:23.967Z,61.76
2022-09-01T08:08:31.340Z,61.62
2022-09-01T08:12:01.157Z,61.09
2022-09-01T08:15:41.012Z,57.86
2022-09-01T08:18:48.193Z,58.60
2022-09-01T08:22:08.049Z,58.33
2022-09-01T08:25:26.690Z,59.29
2022-09-01T08:28:34.810Z,58.83
2022-09-01T08:31:41.994Z,59.02
2022-09-01T08:34:49.930Z,58.46
2022-09-01T08:37:58.808Z,58.90
2022-09-01T08:41:16.975Z,58.47
2022-09-01T08:44:34.895Z,58.31
2022-09-01T08:48:04.663Z,58.58
2022-09-01T08:51:20.565Z,58.07
2022-09-01T08:54:47.688Z,57.70
2022-09-01T08:57:59.157Z,57.69
2022-09-01T09:01:20.254Z,56.79
2022-09-01T09:04:49.705Z,57.61
2022-09-01T09:08:33.174Z,57.51
2022-09-01T09:11:56.687Z,58.11
2022-09-01T09:15:18.397Z,56.78
2022-09-01T09:18:54.770Z,57.13
2022-09-01T09:22:03.825Z,56.88
2022-09-01T09:25:12.881Z,56.52
2022-09-01T09:28:22.554Z,55.40
2022-09-01T09:31:30.710Z,55.32
2022-09-01T09:34:39.535Z,55.23
2022-09-01T09:37:46.817Z,55.09
2022-09-01T09:41:25.672Z,55.06
2022-09-01T09:44:36.479Z,55.13
2022-09-01T09:47:46.783Z,54.90
2022-09-01T09:50:52.949Z,54.52
2022-09-01T09:54:14.608Z,53.73
2022-09-01T09:57:22.125Z,53.27
2022-09-01T10:00:34.552Z,53.05
2022-09-01T10:03:48.117Z,52.10
2022-09-01T10:06:55.908Z,52.31
2022-09-01T10:10:07.231Z,51.16
2022-09-01T10:13:17.978Z,51.14
2022-09-01T10:16:32.465Z,49.86
2022-09-01T10:19:42.580Z,49.79
2022-09-01T10:22:49.666Z,50.08
2022-09-01T10:26:05.931Z,50.15
2022-09-01T10:29:19.156Z,50.07
2022-09-01T10:32:38.313Z,49.16
2022-09-01T10:35:51.225Z,49.17
2022-09-01T10:39:04.353Z,47.27
2022-09-01T10:42:21.478Z,47.13
2022-09-01T10:45:38.170Z,47.68
2022-09-01T10:48:55.689Z,47.61
2022-09-01T10:52:08.586Z,48.28
2022-09-01T10:55:24.942Z,47.96
2022-09-01T11:02:28.085Z,46.88
2022-09-01T11:06:14.628Z,47.37
2022-09-01T11:09:25.584Z,48.38
2022-09-01T11:12:53.438Z,46.96
2022-09-01T11:16:00.719Z,47.99
2022-09-01T11:19:27.947Z,47.70
2022-09-01T11:22:40.725Z,47.29
2022-09-01T11:26:19.016Z,47.33
2022-09-01T11:30:01.446Z,46.11
2022-09-01T11:33:26.421Z,46.70
2022-09-01T11:36:35.651Z,46.74
2022-09-01T11:39:52.205Z,47.40
2022-09-01T11:43:03.605Z,47.23
2022-09-01T11:46:21.979Z,46.04
2022-09-01T11:49:33.551Z,46.44
2022-09-01T11:52:42.416Z,45.16
2022-09-01T11:55:54.029Z,45.47
2022-09-01T11:59:00.820Z,46.05
2022-09-01T12:02:08.794Z,46.18
2022-09-01T12:05:30.392Z,46.02
2022-09-01T12:08:39.756Z,45.69
2022-09-01T12:11:49.273Z,45.35
2022-09-01T12:15:06.123Z,43.13
2022-09-01T12:18:19.246Z,44.74
2022-09-01T12:21:28.095Z,43.86
2022-09-01T12:24:38.339Z,43.28
2022-09-01T12:27:47.509Z,42.27
2022-09-01T12:30:56.003Z,44.33
2022-09-01T12:34:04.867Z,43.65
2022-09-01T12:37:15.212Z,42.55
2022-09-01T12:40:33.936Z,44.11
2022-09-01T12:43:45.603Z,44.66
2022-09-01T12:46:51.756Z,44.77
2022-09-01T12:49:58.597Z,43.82
2022-09-01T12:53:08.451Z,43.89
2022-09-01T12:56:34.114Z,43.15
2022-09-01T12:59:43.146Z,43.10
2022-09-01T13:02:53.910Z,43.03
2022-09-01T13:06:03.598Z,42.70
2022-09-01T13:09:11.135Z,43.07
2022-09-01T13:12:23.130Z,43.01
2022-09-01T13:15:33.468Z,43.12
2022-09-01T13:22:07.423Z,43.33
2022-09-01T13:25:14.293Z,43.04
2022-09-01T13:32:15.984Z,43.76
2022-09-01T13:35:06.657Z,43.89
2022-09-01T13:38:16.316Z,43.58
2022-09-01T13:41:23.108Z,42.74
2022-09-01T13:44:29.365Z,41.63
2022-09-01T13:48:15.068Z,42.31
2022-09-01T13:51:16.656Z,41.92
2022-09-01T13:54:25.351Z,41.51
2022-09-01T13:57:35.679Z,41.75
2022-09-01T14:00:46.572Z,41.84
2022-09-01T14:04:00.197Z,42.13
2022-09-01T14:07:09.474Z,42.09
2022-09-01T14:10:15.657Z,42.09
2022-09-01T14:13:24.089Z,40.53
2022-09-01T14:16:30.010Z,40.00
2022-09-01T14:19:39.633Z,39.96
2022-09-01T14:22:46.604Z,40.46
2022-09-01T14:25:54.995Z,40.51
2022-09-01T14:29:01.072Z,41.57
2022-09-01T14:32:09.258Z,41.54
2022-09-01T14:35:18.937Z,41.28
2022-09-01T14:38:25.643Z,40.67
2022-09-01T14:41:32.111Z,40.17
2022-09-01T14:44:41.022Z,41.20
2022-09-01T14:47:47.499Z,41.47
2022-09-01T14:50:57.082Z,41.51
2022-09-01T14:54:03.862Z,41.24
2022-09-01T15:00:39.553Z,42.11
2022-09-01T15:03:46.767Z,42.41
2022-09-01T15:06:55.679Z,42.48
2022-09-01T15:10:04.371Z,42.28
2022-09-01T15:13:10.627Z,42.15
2022-09-01T15:16:20.232Z,41.58
2022-09-01T15:19:26.453Z,42.03
2022-09-01T15:22:35.989Z,42.14
2022-09-01T15:25:41.864Z,41.84
2022-09-01T15:28:49.503Z,42.09
2022-09-01T15:31:57.271Z,42.39
2022-09-01T15:35:04.830Z,42.43
2022-09-01T15:38:17.544Z,42.48
2022-09-01T15:41:27.309Z,42.47
2022-09-01T15:44:33.561Z,42.87
2022-09-01T15:47:44.960Z,42.96
2022-09-01T15:50:51.600Z,42.77
2022-09-01T15:54:04.091Z,42.71
2022-09-01T15:57:10.062Z,42.70
2022-09-01T16:00:18.169Z,43.23
2022-09-01T16:03:24.791Z,42.34
2022-09-01T16:06:32.985Z,41.83
2022-09-01T16:09:42.477Z,41.05
2022-09-01T16:12:50.116Z,40.04
2022-09-01T16:16:08.856Z,38.58
2022-09-01T16:19:37.217Z,38.22
2022-09-01T16:22:51.594Z,39.01
2022-09-01T16:26:03.607Z,38.90
2022-09-01T16:29:15.824Z,38.99
2022-09-01T16:32:23.613Z,39.96
2022-09-01T16:35:40.164Z,40.27
2022-09-01T16:38:51.808Z,40.85
2022-09-01T16:42:14.991Z,40.98
2022-09-01T16:45:45.716Z,41.48
2022-09-01T16:48:57.232Z,42.10
2022-09-01T16:52:07.500Z,42.19
2022-09-01T16:55:24.736Z,42.13
2022-09-01T16:58:47.428Z,42.48
2022-09-01T17:02:20.584Z,42.96
2022-09-01T17:05:30.294Z,43.52
2022-09-01T17:08:40.470Z,44.34
2022-09-01T17:11:53.447Z,44.97
2022-09-01T17:15:07.129Z,45.77
2022-09-01T17:18:21.924Z,46.63
2022-09-01T17:21:35.273Z,46.96
2022-09-01T17:24:44.048Z,47.06
2022-09-01T17:27:55.910Z,47.53
2022-09-01T17:31:14.706Z,47.53
2022-09-01T17:34:33.787Z,47.92
2022-09-01T17:37:53.404Z,48.13
2022-09-01T17:41:12.857Z,48.46
2022-09-01T17:44:31.032Z,48.75
2022-09-01T17:47:49.049Z,49.27
2022-09-01T17:51:06.697Z,49.34
2022-09-01T17:54:25.003Z,50.11
2022-09-01T17:57:38.741Z,49.76
2022-09-01T18:00:55.475Z,50.18
2022-09-01T18:04:42.259Z,50.70
2022-09-01T18:07:59.833Z,50.86
2022-09-01T18:11:13.508Z,50.94
2022-09-01T18:14:24.172Z,50.91
2022-09-01T18:17:35.631Z,51.53
2022-09-01T18:20:47.018Z,51.53
2022-09-01T18:23:58.976Z,51.87
2022-09-01T18:27:08.183Z,51.64
2022-09-01T18:30:26.297Z,51.51
2022-09-01T18:33:53.048Z,52.35
2022-09-01T18:37:11.007Z,52.40
2022-09-01T18:40:25.742Z,53.23
2022-09-01T18:43:39.059Z,52.76
2022-09-01T18:46:52.565Z,52.55
2022-09-01T18:50:09.663Z,53.20
2022-09-01T18:53:38.794Z,53.28
2022-09-01T18:56:53.111Z,53.08
2022-09-01T19:00:18.799Z,53.39
2022-09-01T19:03:32.149Z,53.20
2022-09-01T19:06:48.316Z,53.11
2022-09-01T19:10:06.949Z,53.85
2022-09-01T19:13:28.319Z,53.51
2022-09-01T19:16:49.275Z,54.26
2022-09-01T19:20:00.179Z,53.57
2022-09-01T19:23:13.810Z,54.36
2022-09-01T19:26:25.301Z,54.49
2022-09-01T19:29:37.743Z,54.68
2022-09-01T19:32:43.977Z,54.66
2022-09-01T19:35:54.801Z,55.00
2022-09-01T19:39:03.552Z,55.41
2022-09-01T19:42:19.156Z,55.31
2022-09-01T19:45:30.995Z,55.52
2022-09-01T19:48:44.858Z,55.82
2022-09-01T19:51:58.782Z,55.91
2022-09-01T19:55:14.732Z,56.32
2022-09-01T19:58:27.149Z,56.22
2022-09-01T20:01:43.311Z,56.56
2022-09-01T20:04:57.078Z,56.78
2022-09-01T20:08:09.583Z,57.00
2022-09-01T20:11:20.563Z,57.24
2022-09-01T20:14:48.519Z,57.97
2022-09-01T20:18:00.835Z,58.04
2022-09-01T20:21:18.821Z,58.52
2022-09-01T20:24:38.418Z,58.37
2022-09-01T20:27:56.541Z,58.71
2022-09-01T20:31:12.454Z,59.70
2022-09-01T20:34:29.472Z,59.11
2022-09-01T20:37:39.242Z,59.23
2022-09-01T20:40:43.812Z,59.01
2022-09-01T20:43:55.902Z,59.23
2022-09-01T20:47:08.351Z,59.58
2022-09-01T20:50:16.425Z,59.65
2022-09-01T20:53:43.166Z,60.08
2022-09-01T20:56:55.575Z,60.32
2022-09-01T21:00:09.910Z,60.30
2022-09-01T21:03:33.914Z,60.42
2022-09-01T21:06:55.882Z,60.61
2022-09-01T21:10:10.685Z,60.76
2022-09-01T21:13:26.912Z,61.28
2022-09-01T21:16:42.523Z,61.17
2022-09-01T21:20:03.857Z,62.23
2022-09-01T21:23:10.158Z,62.57
2022-09-01T21:26:17.058Z,61.81
2022-09-01T21:29:35.445Z,61.91
2022-09-01T21:32:43.002Z,61.76
2022-09-01T21:35:51.801Z,61.98
2022-09-01T21:38:58.741Z,61.71
2022-09-01T21:42:06.613Z,62.19
2022-09-01T21:45:16.457Z,62.20
2022-09-01T21:48:22.641Z,62.77
2022-09-01T21:51:32.220Z,64.07
2022-09-01T21:54:38.597Z,63.15
2022-09-01T21:57:46.376Z,64.25
2022-09-01T22:00:52.907Z,63.69
2022-09-01T22:04:00.164Z,64.06
2022-09-01T22:07:17.163Z,64.25
2022-09-01T22:10:25.671Z,63.78
2022-09-01T22:13:31.570Z,64.11
2022-09-01T22:16:38.426Z,64.09
2022-09-01T22:19:44.931Z,64.68
2022-09-01T22:23:03.538Z,64.78
2022-09-01T22:26:15.437Z,64.75
2022-09-01T22:29:22.913Z,64.31
2022-09-01T22:32:32.983Z,65.05
2022-09-01T22:35:44.097Z,64.79
2022-09-01T22:38:53.105Z,65.55
2022-09-01T22:42:00.425Z,65.62
2022-09-01T22:45:10.091Z,65.75
2022-09-01T22:48:17.070Z,66.01
2022-09-01T22:51:23.294Z,66.18
2022-09-01T22:54:32.805Z,66.47
2022-09-01T22:57:39.514Z,65.96
2022-09-01T23:00:49.034Z,66.43
2022-09-01T23:03:59.675Z,66.59
2022-09-01T23:07:09.624Z,66.79
2022-09-01T23:10:18.823Z,66.70
2022-09-01T23:13:28.568Z,66.63
2022-09-01T23:16:35.149Z,66.83
2022-09-01T23:19:41.946Z,67.25
2022-09-01T23:22:48.891Z,67.16
2022-09-01T23:25:58.468Z,67.56
2022-09-01T23:29:08.495Z,67.43
2022-09-01T23:32:15.261Z,67.39
2022-09-01T23:35:21.366Z,67.40
2022-09-01T23:38:29.070Z,67.47
2022-09-01T23:41:40.068Z,66.96
2022-09-01T23:44:46.894Z,67.05
2022-09-01T23:47:52.852Z,66.99
2022-09-01T23:51:03.563Z,66.99
2022-09-01T23:54:10.144Z,67.16
2022-09-01T23:57:19.625Z,67.37
